sensor_id;sensor_type;location;lat;lon;timestamp;temperature;humidity
9847;DHT22;4962;50.084;8.794;2023-02-01T00:00:33;9.30;99.90
9847;DHT22;4962;50.084;8.794;2023-02-01T00:03:00;9.30;99.90
9847;DHT22;4962;50.084;8.794;2023-02-01T00:05:27;9.30;99.90
9847;DHT22;4962;50.084;8.794;2023-02-01T00:07:54;9.30;99.90
9847;DHT22;4962;50.084;8.794;2023-02-01T00:10:21;9.30;99.90
9847;DHT22;4962;50.084;8.794;2023-02-01T00:12:48;9.20;99.90
9847;DHT22;4962;50.084;8.794;2023-02-01T00:15:16;9.20;99.90
9847;DHT22;4962;50.084;8.794;2023-02-01T00:17:44;9.20;99.90
9847;DHT22;4962;50.084;8.794;2023-02-01T00:20:11;9.20;99.90
9847;DHT22;4962;50.084;8.794;2023-02-01T00:22:38;9.20;99.90
9847;DHT22;4962;50.084;8.794;2023-02-01T00:25:06;9.20;99.90
9847;DHT22;4962;50.084;8.794;2023-02-01T00:27:36;9.30;99.90
9847;DHT22;4962;50.084;8.794;2023-02-01T00:30:03;9.30;99.90
9847;DHT22;4962;50.084;8.794;2023-02-01T00:32:30;9.30;99.90
9847;DHT22;4962;50.084;8.794;2023-02-01T00:34:59;9.40;99.90
9847;DHT22;4962;50.084;8.794;2023-02-01T00:37:26;9.40;99.90
9847;DHT22;4962;50.084;8.794;2023-02-01T00:39:53;9.50;99.90
9847;DHT22;4962;50.084;8.794;2023-02-01T00:42:21;9.50;99.90
9847;DHT22;4962;50.084;8.794;2023-02-01T00:44:48;9.50;99.90
9847;DHT22;4962;50.084;8.794;2023-02-01T00:47:15;9.50;99.90
9847;DHT22;4962;50.084;8.794;2023-02-01T00:49:41;9.50;99.90
9847;DHT22;4962;50.084;8.794;2023-02-01T00:52:10;9.50;99.90
9847;DHT22;4962;50.084;8.794;2023-02-01T00:54:36;9.50;99.90
9847;DHT22;4962;50.084;8.794;2023-02-01T00:57:04;9.50;99.90
9847;DHT22;4962;50.084;8.794;2023-02-01T00:59:31;9.50;99.90
9847;DHT22;4962;50.084;8.794;2023-02-01T01:01:58;9.50;99.90
9847;DHT22;4962;50.084;8.794;2023-02-01T01:04:25;9.50;99.90
9847;DHT22;4962;50.084;8.794;2023-02-01T01:06:52;9.50;99.90
9847;DHT22;4962;50.084;8.794;2023-02-01T01:09:20;9.50;99.90
9847;DHT22;4962;50.084;8.794;2023-02-01T01:11:47;9.60;99.90
9847;DHT22;4962;50.084;8.794;2023-02-01T01:14:13;9.60;99.90
9847;DHT22;4962;50.084;8.794;2023-02-01T01:16:40;9.60;99.90
9847;DHT22;4962;50.084;8.794;2023-02-01T01:19:07;9.60;99.90
9847;DHT22;4962;50.084;8.794;2023-02-01T01:21:34;9.60;99.90
9847;DHT22;4962;50.084;8.794;2023-02-01T01:24:01;9.60;99.90
9847;DHT22;4962;50.084;8.794;2023-02-01T01:26:32;9.70;99.90
9847;DHT22;4962;50.084;8.794;2023-02-01T01:28:59;9.70;99.90
9847;DHT22;4962;50.084;8.794;2023-02-01T01:31:27;9.60;99.90
9847;DHT22;4962;50.084;8.794;2023-02-01T01:33:56;9.60;99.90
9847;DHT22;4962;50.084;8.794;2023-02-01T01:36:52;9.60;99.90
9847;DHT22;4962;50.084;8.794;2023-02-01T01:39:18;9.60;99.90
9847;DHT22;4962;50.084;8.794;2023-02-01T01:41:47;9.60;99.90
9847;DHT22;4962;50.084;8.794;2023-02-01T01:47:19;9.60;99.90
9847;DHT22;4962;50.084;8.794;2023-02-01T01:49:46;9.50;99.90
9847;DHT22;4962;50.084;8.794;2023-02-01T01:52:13;9.50;99.90
9847;DHT22;4962;50.084;8.794;2023-02-01T01:54:43;9.50;99.90
9847;DHT22;4962;50.084;8.794;2023-02-01T01:57:16;9.50;99.90
9847;DHT22;4962;50.084;8.794;2023-02-01T01:59:53;9.50;99.90
9847;DHT22;4962;50.084;8.794;2023-02-01T02:02:22;9.50;99.90
9847;DHT22;4962;50.084;8.794;2023-02-01T02:04:50;9.50;99.90
9847;DHT22;4962;50.084;8.794;2023-02-01T02:07:20;9.50;99.90
9847;DHT22;4962;50.084;8.794;2023-02-01T02:09:48;9.50;99.90
9847;DHT22;4962;50.084;8.794;2023-02-01T02:12:16;9.40;99.90
9847;DHT22;4962;50.084;8.794;2023-02-01T02:14:43;9.40;99.90
9847;DHT22;4962;50.084;8.794;2023-02-01T02:17:24;9.30;99.90
9847;DHT22;4962;50.084;8.794;2023-02-01T02:20:27;9.40;99.90
9847;DHT22;4962;50.084;8.794;2023-02-01T02:23:37;9.30;99.90
9847;DHT22;4962;50.084;8.794;2023-02-01T02:26:21;9.30;99.90
9847;DHT22;4962;50.084;8.794;2023-02-01T02:29:27;9.30;99.90
9847;DHT22;4962;50.084;8.794;2023-02-01T02:32:34;9.30;99.90
9847;DHT22;4962;50.084;8.794;2023-02-01T02:35:11;9.30;99.90
9847;DHT22;4962;50.084;8.794;2023-02-01T02:37:45;9.30;99.90
9847;DHT22;4962;50.084;8.794;2023-02-01T02:40:17;9.20;99.90
9847;DHT22;4962;50.084;8.794;2023-02-01T02:42:50;9.30;99.90
9847;DHT22;4962;50.084;8.794;2023-02-01T02:45:41;9.20;99.90
9847;DHT22;4962;50.084;8.794;2023-02-01T02:48:30;9.20;99.90
9847;DHT22;4962;50.084;8.794;2023-02-01T02:51:05;9.20;99.90
9847;DHT22;4962;50.084;8.794;2023-02-01T02:53:55;9.20;99.90
9847;DHT22;4962;50.084;8.794;2023-02-01T02:56:41;9.20;99.90
9847;DHT22;4962;50.084;8.794;2023-02-01T02:59:26;9.20;99.90
9847;DHT22;4962;50.084;8.794;2023-02-01T03:02:13;9.20;99.90
9847;DHT22;4962;50.084;8.794;2023-02-01T03:04:58;9.20;99.90
9847;DHT22;4962;50.084;8.794;2023-02-01T03:07:55;9.20;99.90
9847;DHT22;4962;50.084;8.794;2023-02-01T03:10:29;9.10;99.90
9847;DHT22;4962;50.084;8.794;2023-02-01T03:13:02;9.10;99.90
9847;DHT22;4962;50.084;8.794;2023-02-01T03:15:33;9.00;99.90
9847;DHT22;4962;50.084;8.794;2023-02-01T03:18:04;9.00;99.90
9847;DHT22;4962;50.084;8.794;2023-02-01T03:20:33;9.00;99.90
9847;DHT22;4962;50.084;8.794;2023-02-01T03:23:03;9.00;99.90
9847;DHT22;4962;50.084;8.794;2023-02-01T03:25:32;8.90;99.90
9847;DHT22;4962;50.084;8.794;2023-02-01T03:28:04;8.90;99.90
9847;DHT22;4962;50.084;8.794;2023-02-01T03:30:33;8.90;99.90
9847;DHT22;4962;50.084;8.794;2023-02-01T03:33:05;8.90;99.90
9847;DHT22;4962;50.084;8.794;2023-02-01T03:35:44;8.80;99.90
9847;DHT22;4962;50.084;8.794;2023-02-01T03:38:19;8.90;99.90
9847;DHT22;4962;50.084;8.794;2023-02-01T03:40:53;8.90;99.90
9847;DHT22;4962;50.084;8.794;2023-02-01T03:43:23;8.90;99.90
9847;DHT22;4962;50.084;8.794;2023-02-01T03:45:57;8.90;99.90
9847;DHT22;4962;50.084;8.794;2023-02-01T03:48:27;9.00;99.90
9847;DHT22;4962;50.084;8.794;2023-02-01T03:50:58;9.00;99.90
9847;DHT22;4962;50.084;8.794;2023-02-01T03:53:31;9.00;99.90
9847;DHT22;4962;50.084;8.794;2023-02-01T03:55:59;9.00;99.90
9847;DHT22;4962;50.084;8.794;2023-02-01T03:58:26;9.00;99.90
9847;DHT22;4962;50.084;8.794;2023-02-01T04:00:55;8.90;99.90
9847;DHT22;4962;50.084;8.794;2023-02-01T04:03:25;8.90;99.90
9847;DHT22;4962;50.084;8.794;2023-02-01T04:05:54;9.00;99.90
9847;DHT22;4962;50.084;8.794;2023-02-01T04:08:22;8.90;99.90
9847;DHT22;4962;50.084;8.794;2023-02-01T04:10:51;8.90;99.90
9847;DHT22;4962;50.084;8.794;2023-02-01T04:13:18;8.90;99.90
9847;DHT22;4962;50.084;8.794;2023-02-01T04:15:46;9.00;99.90
9847;DHT22;4962;50.084;8.794;2023-02-01T04:18:17;8.90;99.90
9847;DHT22;4962;50.084;8.794;2023-02-01T04:20:44;9.00;99.90
9847;DHT22;4962;50.084;8.794;2023-02-01T04:23:11;8.90;99.90
9847;DHT22;4962;50.084;8.794;2023-02-01T04:25:38;8.90;99.90
9847;DHT22;4962;50.084;8.794;2023-02-01T04:28:07;9.00;99.90
9847;DHT22;4962;50.084;8.794;2023-02-01T04:30:34;9.00;99.90
9847;DHT22;4962;50.084;8.794;2023-02-01T04:33:01;9.00;99.90
9847;DHT22;4962;50.084;8.794;2023-02-01T04:35:31;9.00;99.90
9847;DHT22;4962;50.084;8.794;2023-02-01T04:37:59;9.00;99.90
9847;DHT22;4962;50.084;8.794;2023-02-01T04:40:26;9.00;99.90
9847;DHT22;4962;50.084;8.794;2023-02-01T04:42:53;9.00;99.90
9847;DHT22;4962;50.084;8.794;2023-02-01T04:45:21;9.00;99.90
9847;DHT22;4962;50.084;8.794;2023-02-01T04:47:48;9.00;99.90
9847;DHT22;4962;50.084;8.794;2023-02-01T04:50:15;9.00;99.90
9847;DHT22;4962;50.084;8.794;2023-02-01T04:52:43;9.00;99.90
9847;DHT22;4962;50.084;8.794;2023-02-01T04:55:12;9.00;99.90
9847;DHT22;4962;50.084;8.794;2023-02-01T04:57:39;9.00;99.90
9847;DHT22;4962;50.084;8.794;2023-02-01T05:00:08;9.00;99.90
9847;DHT22;4962;50.084;8.794;2023-02-01T05:02:36;9.00;99.90
9847;DHT22;4962;50.084;8.794;2023-02-01T05:05:04;9.10;99.90
9847;DHT22;4962;50.084;8.794;2023-02-01T05:07:31;9.10;99.90
9847;DHT22;4962;50.084;8.794;2023-02-01T05:09:58;9.10;99.90
9847;DHT22;4962;50.084;8.794;2023-02-01T05:12:25;9.10;99.90
9847;DHT22;4962;50.084;8.794;2023-02-01T05:15:10;9.00;99.90
9847;DHT22;4962;50.084;8.794;2023-02-01T05:17:38;9.00;99.90
9847;DHT22;4962;50.084;8.794;2023-02-01T05:20:06;9.00;99.90
9847;DHT22;4962;50.084;8.794;2023-02-01T05:22:33;8.90;99.90
9847;DHT22;4962;50.084;8.794;2023-02-01T05:25:00;8.90;99.90
9847;DHT22;4962;50.084;8.794;2023-02-01T05:27:29;8.90;99.90
9847;DHT22;4962;50.084;8.794;2023-02-01T05:29:58;8.90;99.90
9847;DHT22;4962;50.084;8.794;2023-02-01T05:32:25;8.90;99.90
9847;DHT22;4962;50.084;8.794;2023-02-01T05:34:53;8.90;99.90
9847;DHT22;4962;50.084;8.794;2023-02-01T05:37:20;9.00;99.90
9847;DHT22;4962;50.084;8.794;2023-02-01T05:39:47;9.00;99.90
9847;DHT22;4962;50.084;8.794;2023-02-01T05:42:15;9.00;99.90
9847;DHT22;4962;50.084;8.794;2023-02-01T05:44:42;9.00;99.90
9847;DHT22;4962;50.084;8.794;2023-02-01T05:47:09;8.90;99.90
9847;DHT22;4962;50.084;8.794;2023-02-01T05:49:36;8.90;99.90
9847;DHT22;4962;50.084;8.794;2023-02-01T05:52:05;8.90;99.90
9847;DHT22;4962;50.084;8.794;2023-02-01T05:54:32;8.70;99.90
9847;DHT22;4962;50.084;8.794;2023-02-01T05:56:59;8.80;99.90
9847;DHT22;4962;50.084;8.794;2023-02-01T05:59:26;8.70;99.90
9847;DHT22;4962;50.084;8.794;2023-02-01T06:01:53;8.70;99.90
9847;DHT22;4962;50.084;8.794;2023-02-01T06:04:20;8.70;99.90
9847;DHT22;4962;50.084;8.794;2023-02-01T06:06:47;8.70;99.90
9847;DHT22;4962;50.084;8.794;2023-02-01T06:09:17;8.70;99.90
9847;DHT22;4962;50.084;8.794;2023-02-01T06:11:44;8.60;99.90
9847;DHT22;4962;50.084;8.794;2023-02-01T06:14:11;8.60;99.90
9847;DHT22;4962;50.084;8.794;2023-02-01T06:16:42;8.70;99.90
9847;DHT22;4962;50.084;8.794;2023-02-01T06:19:11;8.70;99.90
9847;DHT22;4962;50.084;8.794;2023-02-01T06:21:42;8.80;99.90
9847;DHT22;4962;50.084;8.794;2023-02-01T06:24:09;8.80;99.90
9847;DHT22;4962;50.084;8.794;2023-02-01T06:26:37;8.80;99.90
9847;DHT22;4962;50.084;8.794;2023-02-01T06:29:05;8.90;99.90
9847;DHT22;4962;50.084;8.794;2023-02-01T06:31:33;8.90;99.90
9847;DHT22;4962;50.084;8.794;2023-02-01T06:34:00;8.90;99.90
9847;DHT22;4962;50.084;8.794;2023-02-01T06:36:28;8.90;99.90
9847;DHT22;4962;50.084;8.794;2023-02-01T06:38:55;9.00;99.90
9847;DHT22;4962;50.084;8.794;2023-02-01T06:41:24;9.00;99.90
9847;DHT22;4962;50.084;8.794;2023-02-01T06:43:53;9.00;99.90
9847;DHT22;4962;50.084;8.794;2023-02-01T06:46:20;9.00;99.90
9847;DHT22;4962;50.084;8.794;2023-02-01T06:48:47;9.00;99.90
9847;DHT22;4962;50.084;8.794;2023-02-01T06:51:21;9.10;99.90
9847;DHT22;4962;50.084;8.794;2023-02-01T06:53:49;9.10;99.90
9847;DHT22;4962;50.084;8.794;2023-02-01T06:56:16;9.00;99.90
9847;DHT22;4962;50.084;8.794;2023-02-01T06:58:43;9.00;99.90
9847;DHT22;4962;50.084;8.794;2023-02-01T07:01:11;9.00;99.90
9847;DHT22;4962;50.084;8.794;2023-02-01T07:03:38;9.00;99.90
9847;DHT22;4962;50.084;8.794;2023-02-01T07:06:09;9.00;99.90
9847;DHT22;4962;50.084;8.794;2023-02-01T07:08:37;9.10;99.90
9847;DHT22;4962;50.084;8.794;2023-02-01T07:11:05;9.10;99.90
9847;DHT22;4962;50.084;8.794;2023-02-01T07:13:33;9.10;99.90
9847;DHT22;4962;50.084;8.794;2023-02-01T07:16:00;9.10;99.90
9847;DHT22;4962;50.084;8.794;2023-02-01T07:18:30;9.10;99.90
9847;DHT22;4962;50.084;8.794;2023-02-01T07:20:57;9.20;99.90
9847;DHT22;4962;50.084;8.794;2023-02-01T07:23:25;9.20;99.90
9847;DHT22;4962;50.084;8.794;2023-02-01T07:25:56;9.20;99.90
9847;DHT22;4962;50.084;8.794;2023-02-01T07:28:24;9.20;99.90
9847;DHT22;4962;50.084;8.794;2023-02-01T07:30:52;9.30;99.90
9847;DHT22;4962;50.084;8.794;2023-02-01T07:33:20;9.30;99.90
9847;DHT22;4962;50.084;8.794;2023-02-01T07:35:50;9.30;99.90
9847;DHT22;4962;50.084;8.794;2023-02-01T07:38:17;9.30;99.90
9847;DHT22;4962;50.084;8.794;2023-02-01T07:40:44;9.30;99.90
9847;DHT22;4962;50.084;8.794;2023-02-01T07:43:12;9.30;99.90
9847;DHT22;4962;50.084;8.794;2023-02-01T07:45:40;9.30;99.90
9847;DHT22;4962;50.084;8.794;2023-02-01T07:48:06;9.30;99.90
9847;DHT22;4962;50.084;8.794;2023-02-01T07:50:33;9.30;99.90
9847;DHT22;4962;50.084;8.794;2023-02-01T07:53:02;9.30;99.90
9847;DHT22;4962;50.084;8.794;2023-02-01T07:55:37;9.30;99.90
9847;DHT22;4962;50.084;8.794;2023-02-01T07:58:04;9.30;99.90
9847;DHT22;4962;50.084;8.794;2023-02-01T08:00:31;9.40;99.90
9847;DHT22;4962;50.084;8.794;2023-02-01T08:03:15;9.40;99.90
9847;DHT22;4962;50.084;8.794;2023-02-01T08:05:42;9.40;99.90
9847;DHT22;4962;50.084;8.794;2023-02-01T08:08:14;9.40;99.90
9847;DHT22;4962;50.084;8.794;2023-02-01T08:10:41;9.40;99.90
9847;DHT22;4962;50.084;8.794;2023-02-01T08:13:08;9.40;99.90
9847;DHT22;4962;50.084;8.794;2023-02-01T08:15:35;9.40;99.90
9847;DHT22;4962;50.084;8.794;2023-02-01T08:18:02;9.40;99.90
9847;DHT22;4962;50.084;8.794;2023-02-01T08:20:30;9.40;99.90
9847;DHT22;4962;50.084;8.794;2023-02-01T08:23:07;9.40;99.90
9847;DHT22;4962;50.084;8.794;2023-02-01T08:25:36;9.50;99.90
9847;DHT22;4962;50.084;8.794;2023-02-01T08:28:04;9.50;99.90
9847;DHT22;4962;50.084;8.794;2023-02-01T08:30:31;9.50;99.90
9847;DHT22;4962;50.084;8.794;2023-02-01T08:32:58;9.50;99.90
9847;DHT22;4962;50.084;8.794;2023-02-01T08:35:26;9.50;99.90
9847;DHT22;4962;50.084;8.794;2023-02-01T08:37:53;9.50;99.90
9847;DHT22;4962;50.084;8.794;2023-02-01T08:40:20;9.50;99.90
9847;DHT22;4962;50.084;8.794;2023-02-01T08:42:48;9.60;99.90
9847;DHT22;4962;50.084;8.794;2023-02-01T08:45:19;9.60;99.90
9847;DHT22;4962;50.084;8.794;2023-02-01T08:47:47;9.60;99.90
9847;DHT22;4962;50.084;8.794;2023-02-01T08:50:14;9.70;99.90
9847;DHT22;4962;50.084;8.794;2023-02-01T08:52:41;9.70;99.90
9847;DHT22;4962;50.084;8.794;2023-02-01T08:55:09;9.70;99.90
9847;DHT22;4962;50.084;8.794;2023-02-01T08:57:37;9.70;99.90
9847;DHT22;4962;50.084;8.794;2023-02-01T09:00:07;9.70;99.90
9847;DHT22;4962;50.084;8.794;2023-02-01T09:02:59;9.80;99.90
9847;DHT22;4962;50.084;8.794;2023-02-01T09:05:40;9.80;99.90
9847;DHT22;4962;50.084;8.794;2023-02-01T09:18:31;9.80;99.90
9847;DHT22;4962;50.084;8.794;2023-02-01T09:21:14;9.80;99.90
9847;DHT22;4962;50.084;8.794;2023-02-01T09:23:44;9.90;99.90
9847;DHT22;4962;50.084;8.794;2023-02-01T09:26:14;9.90;99.90
9847;DHT22;4962;50.084;8.794;2023-02-01T09:28:41;9.90;99.90
9847;DHT22;4962;50.084;8.794;2023-02-01T09:31:08;9.90;99.90
9847;DHT22;4962;50.084;8.794;2023-02-01T09:33:40;9.90;99.90
9847;DHT22;4962;50.084;8.794;2023-02-01T09:36:07;10.00;99.90
9847;DHT22;4962;50.084;8.794;2023-02-01T09:38:34;10.00;99.90
9847;DHT22;4962;50.084;8.794;2023-02-01T09:41:22;10.00;99.90
9847;DHT22;4962;50.084;8.794;2023-02-01T09:43:59;10.10;99.90
9847;DHT22;4962;50.084;8.794;2023-02-01T09:46:32;10.10;99.90
9847;DHT22;4962;50.084;8.794;2023-02-01T09:49:05;10.20;99.90
9847;DHT22;4962;50.084;8.794;2023-02-01T09:51:37;10.10;99.90
9847;DHT22;4962;50.084;8.794;2023-02-01T09:54:12;10.10;99.90
9847;DHT22;4962;50.084;8.794;2023-02-01T09:56:46;10.10;99.90
9847;DHT22;4962;50.084;8.794;2023-02-01T09:59:26;10.20;99.90
9847;DHT22;4962;50.084;8.794;2023-02-01T10:01:58;10.20;99.90
9847;DHT22;4962;50.084;8.794;2023-02-01T10:04:27;10.30;99.90
9847;DHT22;4962;50.084;8.794;2023-02-01T10:07:11;10.40;99.90
9847;DHT22;4962;50.084;8.794;2023-02-01T10:09:49;10.40;99.90
9847;DHT22;4962;50.084;8.794;2023-02-01T10:15:27;10.50;99.90
9847;DHT22;4962;50.084;8.794;2023-02-01T10:18:28;10.50;99.90
9847;DHT22;4962;50.084;8.794;2023-02-01T10:21:04;10.50;99.90
9847;DHT22;4962;50.084;8.794;2023-02-01T10:23:45;10.50;99.90
9847;DHT22;4962;50.084;8.794;2023-02-01T10:26:18;10.60;99.90
9847;DHT22;4962;50.084;8.794;2023-02-01T10:28:49;10.60;99.90
9847;DHT22;4962;50.084;8.794;2023-02-01T10:31:16;10.60;99.90
9847;DHT22;4962;50.084;8.794;2023-02-01T10:33:45;10.50;99.90
9847;DHT22;4962;50.084;8.794;2023-02-01T10:36:17;10.60;99.90
9847;DHT22;4962;50.084;8.794;2023-02-01T10:38:48;10.60;99.90
9847;DHT22;4962;50.084;8.794;2023-02-01T10:41:17;10.60;99.90
9847;DHT22;4962;50.084;8.794;2023-02-01T10:43:49;10.50;99.90
9847;DHT22;4962;50.084;8.794;2023-02-01T10:46:17;10.50;99.90
9847;DHT22;4962;50.084;8.794;2023-02-01T10:48:45;10.50;99.90
9847;DHT22;4962;50.084;8.794;2023-02-01T10:51:17;10.50;99.90
9847;DHT22;4962;50.084;8.794;2023-02-01T10:53:49;10.50;99.90
9847;DHT22;4962;50.084;8.794;2023-02-01T10:56:22;10.50;99.90
9847;DHT22;4962;50.084;8.794;2023-02-01T10:58:49;10.50;99.90
9847;DHT22;4962;50.084;8.794;2023-02-01T11:01:19;10.50;99.90
9847;DHT22;4962;50.084;8.794;2023-02-01T11:03:53;10.60;99.90
9847;DHT22;4962;50.084;8.794;2023-02-01T11:06:40;10.60;99.90
9847;DHT22;4962;50.084;8.794;2023-02-01T11:09:18;10.60;99.90
9847;DHT22;4962;50.084;8.794;2023-02-01T11:11:55;10.60;99.90
9847;DHT22;4962;50.084;8.794;2023-02-01T11:14:41;10.60;99.90
9847;DHT22;4962;50.084;8.794;2023-02-01T11:20:48;10.70;99.90
9847;DHT22;4962;50.084;8.794;2023-02-01T11:23:48;10.70;99.90
9847;DHT22;4962;50.084;8.794;2023-02-01T11:26:45;10.80;99.90
9847;DHT22;4962;50.084;8.794;2023-02-01T11:29:55;10.80;99.90
9847;DHT22;4962;50.084;8.794;2023-02-01T11:45:57;10.70;99.90
9847;DHT22;4962;50.084;8.794;2023-02-01T11:48:25;10.70;99.90
9847;DHT22;4962;50.084;8.794;2023-02-01T11:51:04;10.70;99.90
9847;DHT22;4962;50.084;8.794;2023-02-01T11:53:45;10.70;99.90
9847;DHT22;4962;50.084;8.794;2023-02-01T11:56:45;10.70;99.90
9847;DHT22;4962;50.084;8.794;2023-02-01T11:59:39;10.60;99.90
9847;DHT22;4962;50.084;8.794;2023-02-01T12:02:29;10.70;99.90
9847;DHT22;4962;50.084;8.794;2023-02-01T12:05:24;10.70;99.90
9847;DHT22;4962;50.084;8.794;2023-02-01T12:08:11;10.70;99.90
9847;DHT22;4962;50.084;8.794;2023-02-01T12:10:52;10.70;99.90
9847;DHT22;4962;50.084;8.794;2023-02-01T12:13:38;10.70;99.90
9847;DHT22;4962;50.084;8.794;2023-02-01T12:16:18;10.70;99.90
9847;DHT22;4962;50.084;8.794;2023-02-01T12:19:25;10.70;99.90
9847;DHT22;4962;50.084;8.794;2023-02-01T12:22:21;10.60;99.90
9847;DHT22;4962;50.084;8.794;2023-02-01T12:25:04;10.60;99.90
9847;DHT22;4962;50.084;8.794;2023-02-01T12:28:04;10.50;99.90
9847;DHT22;4962;50.084;8.794;2023-02-01T12:31:05;10.50;99.90
9847;DHT22;4962;50.084;8.794;2023-02-01T12:33:48;10.50;99.90
9847;DHT22;4962;50.084;8.794;2023-02-01T12:36:29;10.50;99.90
9847;DHT22;4962;50.084;8.794;2023-02-01T12:39:05;10.40;99.90
9847;DHT22;4962;50.084;8.794;2023-02-01T12:41:47;10.50;99.90
9847;DHT22;4962;50.084;8.794;2023-02-01T12:44:24;10.50;99.90
9847;DHT22;4962;50.084;8.794;2023-02-01T12:46:55;10.50;99.90
9847;DHT22;4962;50.084;8.794;2023-02-01T12:49:32;10.50;99.90
9847;DHT22;4962;50.084;8.794;2023-02-01T12:52:06;10.50;99.90
9847;DHT22;4962;50.084;8.794;2023-02-01T12:54:46;10.50;99.90
9847;DHT22;4962;50.084;8.794;2023-02-01T12:57:17;10.60;99.90
9847;DHT22;4962;50.084;8.794;2023-02-01T12:59:51;10.60;99.90
9847;DHT22;4962;50.084;8.794;2023-02-01T13:02:25;10.60;99.90
9847;DHT22;4962;50.084;8.794;2023-02-01T13:05:01;10.60;99.90
9847;DHT22;4962;50.084;8.794;2023-02-01T13:07:34;10.70;99.90
9847;DHT22;4962;50.084;8.794;2023-02-01T13:10:12;10.70;99.90
9847;DHT22;4962;50.084;8.794;2023-02-01T13:12:44;10.70;99.90
9847;DHT22;4962;50.084;8.794;2023-02-01T13:15:19;10.70;99.90
9847;DHT22;4962;50.084;8.794;2023-02-01T13:17:47;10.70;99.90
9847;DHT22;4962;50.084;8.794;2023-02-01T13:20:20;10.70;99.90
9847;DHT22;4962;50.084;8.794;2023-02-01T13:22:54;10.70;99.90
9847;DHT22;4962;50.084;8.794;2023-02-01T13:25:30;10.70;99.90
9847;DHT22;4962;50.084;8.794;2023-02-01T13:28:02;10.70;99.90
9847;DHT22;4962;50.084;8.794;2023-02-01T13:30:45;10.70;99.90
9847;DHT22;4962;50.084;8.794;2023-02-01T13:33:45;10.70;99.90
9847;DHT22;4962;50.084;8.794;2023-02-01T13:36:38;10.70;99.90
9847;DHT22;4962;50.084;8.794;2023-02-01T13:42:17;10.70;99.90
9847;DHT22;4962;50.084;8.794;2023-02-01T13:44:47;10.70;99.90
9847;DHT22;4962;50.084;8.794;2023-02-01T13:47:23;10.70;99.90
9847;DHT22;4962;50.084;8.794;2023-02-01T13:49:51;10.70;99.90
9847;DHT22;4962;50.084;8.794;2023-02-01T13:52:37;10.80;99.90
9847;DHT22;4962;50.084;8.794;2023-02-01T13:55:26;10.80;99.90
9847;DHT22;4962;50.084;8.794;2023-02-01T13:58:02;10.80;99.90
9847;DHT22;4962;50.084;8.794;2023-02-01T14:00:31;10.90;99.90
9847;DHT22;4962;50.084;8.794;2023-02-01T14:03:08;10.90;99.90
9847;DHT22;4962;50.084;8.794;2023-02-01T14:05:59;10.90;99.90
9847;DHT22;4962;50.084;8.794;2023-02-01T14:08:41;10.90;99.90
9847;DHT22;4962;50.084;8.794;2023-02-01T14:11:36;10.90;99.90
9847;DHT22;4962;50.084;8.794;2023-02-01T14:17:29;10.90;99.90
9847;DHT22;4962;50.084;8.794;2023-02-01T14:23:23;10.90;99.90
9847;DHT22;4962;50.084;8.794;2023-02-01T14:26:18;11.00;99.90
9847;DHT22;4962;50.084;8.794;2023-02-01T14:28:52;11.00;99.90
9847;DHT22;4962;50.084;8.794;2023-02-01T14:31:49;11.00;99.90
9847;DHT22;4962;50.084;8.794;2023-02-01T14:34:22;11.00;99.90
9847;DHT22;4962;50.084;8.794;2023-02-01T14:36:56;11.00;99.90
9847;DHT22;4962;50.084;8.794;2023-02-01T14:39:31;11.00;99.90
9847;DHT22;4962;50.084;8.794;2023-02-01T14:42:02;10.90;99.90
9847;DHT22;4962;50.084;8.794;2023-02-01T14:44:36;10.90;99.90
9847;DHT22;4962;50.084;8.794;2023-02-01T14:50:12;10.90;99.90
9847;DHT22;4962;50.084;8.794;2023-02-01T14:52:42;10.90;99.90
9847;DHT22;4962;50.084;8.794;2023-02-01T14:55:29;10.90;99.90
9847;DHT22;4962;50.084;8.794;2023-02-01T14:58:01;10.90;99.90
9847;DHT22;4962;50.084;8.794;2023-02-01T15:00:30;11.00;99.90
9847;DHT22;4962;50.084;8.794;2023-02-01T15:03:20;11.00;99.90
9847;DHT22;4962;50.084;8.794;2023-02-01T15:05:55;11.00;99.90
9847;DHT22;4962;50.084;8.794;2023-02-01T15:08:25;11.00;99.90
9847;DHT22;4962;50.084;8.794;2023-02-01T15:10:54;10.80;99.90
9847;DHT22;4962;50.084;8.794;2023-02-01T15:13:25;10.90;99.90
9847;DHT22;4962;50.084;8.794;2023-02-01T15:16:10;11.00;99.90
9847;DHT22;4962;50.084;8.794;2023-02-01T15:18:42;11.00;99.90
9847;DHT22;4962;50.084;8.794;2023-02-01T15:21:19;11.00;99.90
9847;DHT22;4962;50.084;8.794;2023-02-01T15:23:48;11.00;99.90
9847;DHT22;4962;50.084;8.794;2023-02-01T15:26:28;11.00;99.90
9847;DHT22;4962;50.084;8.794;2023-02-01T15:28:56;11.00;99.90
9847;DHT22;4962;50.084;8.794;2023-02-01T15:31:39;10.90;99.90
9847;DHT22;4962;50.084;8.794;2023-02-01T15:34:10;11.00;99.90
9847;DHT22;4962;50.084;8.794;2023-02-01T15:36:50;11.00;99.90
9847;DHT22;4962;50.084;8.794;2023-02-01T15:39:24;11.00;99.90
9847;DHT22;4962;50.084;8.794;2023-02-01T15:42:08;11.00;99.90
9847;DHT22;4962;50.084;8.794;2023-02-01T15:44:45;11.10;99.90
9847;DHT22;4962;50.084;8.794;2023-02-01T15:47:24;11.00;99.90
9847;DHT22;4962;50.084;8.794;2023-02-01T15:52:54;11.10;99.90
9847;DHT22;4962;50.084;8.794;2023-02-01T15:55:24;11.10;99.90
9847;DHT22;4962;50.084;8.794;2023-02-01T15:57:58;11.10;99.90
9847;DHT22;4962;50.084;8.794;2023-02-01T16:00:29;11.10;99.90
9847;DHT22;4962;50.084;8.794;2023-02-01T16:03:00;11.00;99.90
9847;DHT22;4962;50.084;8.794;2023-02-01T16:05:34;11.00;99.90
9847;DHT22;4962;50.084;8.794;2023-02-01T16:08:03;11.00;99.90
9847;DHT22;4962;50.084;8.794;2023-02-01T16:10:37;11.00;99.90
9847;DHT22;4962;50.084;8.794;2023-02-01T16:13:04;11.00;99.90
9847;DHT22;4962;50.084;8.794;2023-02-01T16:15:31;11.00;99.90
9847;DHT22;4962;50.084;8.794;2023-02-01T16:18:00;11.00;99.90
9847;DHT22;4962;50.084;8.794;2023-02-01T16:20:27;11.00;99.90
9847;DHT22;4962;50.084;8.794;2023-02-01T16:22:55;11.00;99.90
9847;DHT22;4962;50.084;8.794;2023-02-01T16:25:22;11.10;99.90
9847;DHT22;4962;50.084;8.794;2023-02-01T16:31:33;11.10;99.90
9847;DHT22;4962;50.084;8.794;2023-02-01T16:34:03;11.20;99.90
9847;DHT22;4962;50.084;8.794;2023-02-01T16:36:30;11.00;99.90
9847;DHT22;4962;50.084;8.794;2023-02-01T16:39:00;11.10;99.90
9847;DHT22;4962;50.084;8.794;2023-02-01T16:41:28;10.90;99.90
9847;DHT22;4962;50.084;8.794;2023-02-01T16:43:55;10.90;99.90
9847;DHT22;4962;50.084;8.794;2023-02-01T16:46:24;10.90;99.90
9847;DHT22;4962;50.084;8.794;2023-02-01T16:48:54;10.90;99.90
9847;DHT22;4962;50.084;8.794;2023-02-01T16:51:24;10.90;99.90
9847;DHT22;4962;50.084;8.794;2023-02-01T16:53:59;10.90;99.90
9847;DHT22;4962;50.084;8.794;2023-02-01T16:56:30;10.80;99.90
9847;DHT22;4962;50.084;8.794;2023-02-01T16:58:57;10.80;99.90
9847;DHT22;4962;50.084;8.794;2023-02-01T17:01:24;10.70;99.90
9847;DHT22;4962;50.084;8.794;2023-02-01T17:03:51;10.70;99.90
9847;DHT22;4962;50.084;8.794;2023-02-01T17:06:19;10.70;99.90
9847;DHT22;4962;50.084;8.794;2023-02-01T17:08:50;10.70;99.90
9847;DHT22;4962;50.084;8.794;2023-02-01T17:11:18;10.60;99.90
9847;DHT22;4962;50.084;8.794;2023-02-01T17:13:45;10.60;99.90
9847;DHT22;4962;50.084;8.794;2023-02-01T17:16:22;10.60;99.90
9847;DHT22;4962;50.084;8.794;2023-02-01T17:18:55;10.60;99.90
9847;DHT22;4962;50.084;8.794;2023-02-01T17:21:22;10.50;99.90
9847;DHT22;4962;50.084;8.794;2023-02-01T17:23:51;10.60;99.90
9847;DHT22;4962;50.084;8.794;2023-02-01T17:26:19;10.50;99.90
9847;DHT22;4962;50.084;8.794;2023-02-01T17:28:46;10.50;99.90
9847;DHT22;4962;50.084;8.794;2023-02-01T17:31:14;10.50;99.90
9847;DHT22;4962;50.084;8.794;2023-02-01T17:33:42;10.50;99.90
9847;DHT22;4962;50.084;8.794;2023-02-01T17:36:12;10.50;99.90
9847;DHT22;4962;50.084;8.794;2023-02-01T17:38:40;10.50;99.90